Time;durP1;ratioP1;P1;durP2;ratioP2;P2;SDS_P1;SDS_P2;PMS_P1;PMS_P2;Temp;Humidity;BMP_temperature;BMP_pressure;BME280_temperature;BME280_humidity;BME280_pressure;Samples;Min_cycle;Max_cycle;Signal;HPM_P1;HPM_P2
2022/05/25 00:00:42;;;;;;;0.40;0.40;;;11.10;99.90;;;;;;4986061;28;20053;-56
2022/05/25 00:03:10;;;;;;;2.55;0.95;;;11.20;99.90;;;;;;4991340;28;20053;-56
2022/05/25 00:05:39;;;;;;;2.17;0.60;;;11.10;99.90;;;;;;5005804;28;20049;-55
2022/05/25 00:08:09;;;;;;;0.60;0.40;;;11.10;99.90;;;;;;5006943;28;20050;-55
2022/05/25 00:10:37;;;;;;;2.00;0.50;;;11.20;99.90;;;;;;5006842;28;20049;-55
2022/05/25 00:13:05;;;;;;;2.42;0.60;;;11.20;99.90;;;;;;5006532;28;20057;-56
2022/05/25 00:15:35;;;;;;;1.20;0.60;;;11.20;99.90;;;;;;5006409;28;20394;-55
2022/05/25 00:18:03;;;;;;;1.42;0.85;;;11.20;99.90;;;;;;5005608;28;20050;-55
2022/05/25 00:20:31;;;;;;;1.80;0.50;;;11.20;99.90;;;;;;5006676;28;20397;-55
2022/05/25 00:22:58;;;;;;;1.63;0.40;;;11.30;99.90;;;;;;5006979;28;20513;-55
2022/05/25 00:25:33;;;;;;;1.95;0.60;;;11.30;99.90;;;;;;5006652;28;20050;-55
2022/05/25 00:28:06;;;;;;;1.77;0.30;;;11.30;99.90;;;;;;5007313;28;20049;-55
2022/05/25 00:30:35;;;;;;;2.00;0.50;;;11.30;99.90;;;;;;4991087;28;20054;-55
2022/05/25 00:33:03;;;;;;;0.90;0.60;;;11.30;99.90;;;;;;4993082;28;20270;-55
2022/05/25 00:35:35;;;;;;;3.60;0.82;;;11.40;99.90;;;;;;5010946;28;20046;-55
2022/05/25 00:38:04;;;;;;;0.77;0.55;;;11.40;99.90;;;;;;5013459;28;20505;-55
2022/05/25 00:40:39;;;;;;;1.63;0.38;;;11.40;99.90;;;;;;5013808;28;20053;-55
2022/05/25 00:43:08;;;;;;;4.80;1.85;;;11.40;99.90;;;;;;5013591;28;20398;-55
2022/05/25 00:45:50;;;;;;;2.78;0.40;;;11.40;99.90;;;;;;4994708;28;20043;-55
2022/05/25 00:48:50;;;;;;;5.15;0.52;;;11.40;99.90;;;;;;5000601;28;20060;-55
2022/05/25 00:51:24;;;;;;;1.85;0.60;;;11.40;99.90;;;;;;5001023;28;20513;-55
2022/05/25 00:53:56;;;;;;;2.72;0.75;;;11.40;99.90;;;;;;5012675;28;20069;-55
2022/05/25 00:56:26;;;;;;;0.77;0.43;;;11.30;99.90;;;;;;5012909;28;20065;-55
2022/05/25 00:59:18;;;;;;;1.10;0.57;;;11.30;99.90;;;;;;5007968;28;20062;-55
2022/05/25 01:01:46;;;;;;;1.90;0.40;;;11.30;99.90;;;;;;4992889;28;20051;-55
2022/05/25 01:04:15;;;;;;;1.60;0.43;;;11.30;99.90;;;;;;5001728;28;20368;-55
2022/05/25 01:06:42;;;;;;;0.75;0.52;;;11.30;99.90;;;;;;5010808;28;20049;-55
2022/05/25 01:09:48;;;;;;;0.80;0.50;;;11.30;99.90;;;;;;5012797;28;20038;-55
2022/05/25 01:12:43;;;;;;;2.30;0.50;;;11.30;99.90;;;;;;4963912;28;20053;-55
2022/05/25 01:15:35;;;;;;;0.35;0.30;;;11.30;99.90;;;;;;4999180;28;20054;-56
2022/05/25 01:18:26;;;;;;;2.33;0.43;;;11.30;99.90;;;;;;4996536;28;20050;-56
2022/05/25 01:21:05;;;;;;;2.13;0.63;;;11.30;99.90;;;;;;5012716;28;20056;-56
2022/05/25 01:23:52;;;;;;;0.60;0.45;;;11.30;99.90;;;;;;5012748;28;20057;-55
2022/05/25 01:26:28;;;;;;;2.92;0.50;;;11.30;99.90;;;;;;5011631;28;20604;-55
2022/05/25 01:29:02;;;;;;;2.92;0.70;;;11.20;99.90;;;;;;5009739;28;20513;-55
2022/05/25 01:31:43;;;;;;;0.73;0.43;;;11.20;99.90;;;;;;4997275;28;20038;-55
2022/05/25 01:34:16;;;;;;;1.83;0.40;;;11.10;99.90;;;;;;4992576;28;20057;-55
2022/05/25 01:37:15;;;;;;;1.80;0.77;;;11.10;99.90;;;;;;4993429;28;20066;-55
2022/05/25 01:39:58;;;;;;;1.50;0.40;;;11.10;99.90;;;;;;5011701;28;20409;-55
2022/05/25 01:43:16;;;;;;;0.75;0.60;;;11.00;99.90;;;;;;5013746;28;20052;-56
2022/05/25 01:45:48;;;;;;;3.05;0.60;;;11.00;99.90;;;;;;4997616;28;20046;-56
2022/05/25 01:48:19;;;;;;;1.23;0.70;;;10.90;99.90;;;;;;5014257;28;20065;-55
2022/05/25 01:50:55;;;;;;;2.55;0.60;;;11.00;99.90;;;;;;5013482;28;20055;-55
2022/05/25 01:53:28;;;;;;;4.75;0.80;;;10.90;99.90;;;;;;5014182;28;20050;-56
2022/05/25 01:56:01;;;;;;;3.50;0.73;;;10.90;99.90;;;;;;4996599;28;20050;-55
2022/05/25 01:58:36;;;;;;;1.45;0.70;;;10.90;99.90;;;;;;5013436;28;20045;-55
2022/05/25 02:01:07;;;;;;;1.38;0.70;;;10.90;99.90;;;;;;5012904;28;20046;-55
2022/05/25 02:06:51;;;;;;;1.60;0.80;;;10.90;99.90;;;;;;5045374;28;20049;-55
2022/05/25 02:09:24;;;;;;;1.83;0.93;;;10.90;99.90;;;;;;5013593;28;20405;-55
2022/05/25 02:12:25;;;;;;;3.45;1.10;;;10.80;99.90;;;;;;5012555;28;20054;-55
2022/05/25 02:15:31;;;;;;;1.98;0.75;;;10.80;99.90;;;;;;5013369;28;20046;-55
2022/05/25 02:18:17;;;;;;;3.35;0.98;;;10.80;99.90;;;;;;4998150;28;20057;-55
2022/05/25 02:20:57;;;;;;;1.13;0.70;;;10.80;99.90;;;;;;5013663;28;20042;-55
2022/05/25 02:23:40;;;;;;;3.03;0.88;;;10.80;99.90;;;;;;5013513;28;20046;-55
2022/05/25 02:26:14;;;;;;;2.00;0.80;;;10.80;99.90;;;;;;5013277;28;20041;-55
2022/05/25 02:28:54;;;;;;;2.60;0.90;;;10.80;99.90;;;;;;5013346;28;20060;-55
2022/05/25 02:31:27;;;;;;;2.67;0.90;;;10.80;99.90;;;;;;5013627;28;20057;-56
2022/05/25 02:34:00;;;;;;;3.65;0.90;;;10.70;99.90;;;;;;5013167;28;20517;-55
2022/05/25 02:36:32;;;;;;;1.83;0.60;;;10.80;99.90;;;;;;5013254;28;20042;-56
2022/05/25 02:39:03;;;;;;;2.05;1.27;;;10.70;99.90;;;;;;5011981;28;20049;-56
2022/05/25 02:41:34;;;;;;;1.90;0.80;;;10.70;99.90;;;;;;5011963;28;20402;-56
2022/05/25 02:44:03;;;;;;;3.95;0.85;;;10.70;99.90;;;;;;5013098;28;20053;-56
2022/05/25 02:46:30;;;;;;;1.88;0.93;;;10.70;99.90;;;;;;5013130;28;20509;-56
2022/05/25 02:48:58;;;;;;;8.02;1.02;;;10.70;99.90;;;;;;5012963;28;20050;-56
2022/05/25 02:51:26;;;;;;;4.57;1.27;;;10.70;99.90;;;;;;5012014;28;20046;-56
2022/05/25 02:53:54;;;;;;;6.88;1.40;;;10.80;99.90;;;;;;5012844;28;20054;-56
2022/05/25 02:56:21;;;;;;;4.57;0.85;;;10.80;99.90;;;;;;5012824;28;20497;-56
2022/05/25 02:58:49;;;;;;;2.95;1.00;;;10.80;99.90;;;;;;5012836;28;20049;-56
2022/05/25 03:01:17;;;;;;;1.55;0.85;;;10.80;99.90;;;;;;5012731;28;20065;-56
2022/05/25 03:03:44;;;;;;;2.55;0.93;;;10.80;99.90;;;;;;5011416;28;20046;-56
2022/05/25 03:06:12;;;;;;;5.43;0.95;;;10.80;99.90;;;;;;5012636;28;20046;-56
2022/05/25 03:08:41;;;;;;;5.18;0.90;;;10.80;99.90;;;;;;5011409;28;20057;-55
2022/05/25 03:11:08;;;;;;;2.38;1.20;;;10.80;99.90;;;;;;5012572;28;20402;-56
2022/05/25 03:13:36;;;;;;;1.40;0.95;;;10.80;99.90;;;;;;5012571;28;20054;-56
2022/05/25 03:16:07;;;;;;;2.53;0.80;;;10.80;99.90;;;;;;5012579;28;20406;-56
2022/05/25 03:18:35;;;;;;;3.00;0.95;;;10.90;99.90;;;;;;5011101;28;20057;-55
2022/05/25 03:21:03;;;;;;;2.83;1.02;;;10.90;99.90;;;;;;5012595;28;20489;-56
2022/05/25 03:23:30;;;;;;;4.68;1.35;;;10.80;99.90;;;;;;5012577;28;20518;-56
2022/05/25 03:25:58;;;;;;;7.47;1.15;;;10.80;99.90;;;;;;5012576;28;20049;-56
2022/05/25 03:28:26;;;;;;;5.18;1.35;;;10.80;99.90;;;;;;5012477;28;20045;-56
2022/05/25 03:30:54;;;;;;;4.80;1.42;;;10.80;99.90;;;;;;5012370;28;20478;-56
2022/05/25 03:33:22;;;;;;;4.15;1.45;;;10.80;99.90;;;;;;5012251;28;20057;-56
2022/05/25 03:35:50;;;;;;;4.07;0.95;;;10.80;99.90;;;;;;5012668;28;20478;-56
2022/05/25 03:38:17;;;;;;;5.88;1.58;;;10.80;99.90;;;;;;5012164;28;20041;-56
2022/05/25 03:40:45;;;;;;;3.15;0.90;;;10.80;99.90;;;;;;5012298;28;20053;-56
2022/05/25 03:43:16;;;;;;;4.40;2.33;;;10.80;99.90;;;;;;5010699;28;20440;-56
2022/05/25 03:45:46;;;;;;;3.53;1.02;;;10.80;99.90;;;;;;5010966;28;20076;-56
2022/05/25 03:48:14;;;;;;;3.10;1.00;;;10.80;99.90;;;;;;5012039;28;20057;-56
2022/05/25 03:50:42;;;;;;;6.78;1.40;;;10.80;99.90;;;;;;5012052;28;20050;-56
2022/05/25 03:53:14;;;;;;;3.20;1.30;;;10.80;99.90;;;;;;5011881;28;20046;-55
2022/05/25 03:55:43;;;;;;;2.42;1.40;;;10.80;99.90;;;;;;5011863;28;20046;-56
2022/05/25 03:58:11;;;;;;;3.20;1.35;;;10.80;99.90;;;;;;5012028;28;20478;-56
2022/05/25 04:00:38;;;;;;;5.20;1.10;;;10.80;99.90;;;;;;5011978;28;20054;-55
2022/05/25 04:03:07;;;;;;;5.22;1.52;;;10.80;99.90;;;;;;5010368;28;20042;-55
2022/05/25 04:05:35;;;;;;;9.20;2.28;;;10.80;99.90;;;;;;5011708;28;20053;-56
2022/05/25 04:08:03;;;;;;;4.80;2.15;;;10.80;99.90;;;;;;5010669;28;20042;-56
2022/05/25 04:10:31;;;;;;;5.75;1.92;;;10.80;99.90;;;;;;5011508;28;20134;-55
2022/05/25 04:12:58;;;;;;;8.98;2.00;;;10.90;99.90;;;;;;5011792;28;20485;-56
2022/05/25 04:15:28;;;;;;;10.07;2.08;;;10.90;99.90;;;;;;5010481;28;20049;-55
2022/05/25 04:17:56;;;;;;;2.53;1.85;;;10.90;99.90;;;;;;5011640;28;20517;-55
2022/05/25 04:20:25;;;;;;;6.35;2.67;;;10.90;99.90;;;;;;5011721;28;20390;-55
2022/05/25 04:22:53;;;;;;;3.95;2.00;;;10.80;99.90;;;;;;5011711;28;20505;-56
2022/05/25 04:25:23;;;;;;;6.57;2.20;;;10.80;99.90;;;;;;5011591;28;20049;-55
2022/05/25 04:27:53;;;;;;;5.82;1.88;;;10.80;99.90;;;;;;5011627;28;20054;-55
2022/05/25 04:30:24;;;;;;;13.23;2.20;;;10.80;99.90;;;;;;5011731;28;20069;-55
2022/05/25 04:32:52;;;;;;;5.35;1.88;;;10.80;99.90;;;;;;5011620;28;20046;-55
2022/05/25 04:35:21;;;;;;;5.30;2.17;;;10.80;99.90;;;;;;5011646;28;20053;-55
2022/05/25 04:37:49;;;;;;;4.57;1.88;;;10.80;99.90;;;;;;5011527;28;20046;-56
2022/05/25 04:40:27;;;;;;;4.68;1.90;;;10.70;99.90;;;;;;5010225;28;20054;-56
2022/05/25 04:42:57;;;;;;;6.68;1.75;;;10.70;99.90;;;;;;5010448;28;20509;-56
2022/05/25 04:45:26;;;;;;;4.85;2.00;;;10.70;99.90;;;;;;5011477;28;20057;-56
2022/05/25 04:47:56;;;;;;;3.60;2.10;;;10.80;99.90;;;;;;4999690;28;20046;-56
2022/05/25 04:50:26;;;;;;;9.80;2.38;;;10.70;99.90;;;;;;4971628;28;20062;-55
2022/05/25 04:52:59;;;;;;;5.97;2.03;;;10.70;99.90;;;;;;4988403;28;20042;-56
2022/05/25 04:58:23;;;;;;;5.88;1.73;;;10.80;99.90;;;;;;4998406;28;20053;-56
2022/05/25 05:00:51;;;;;;;10.52;2.00;;;10.80;99.90;;;;;;5008287;28;20061;-56
2022/05/25 05:03:20;;;;;;;6.95;2.20;;;10.80;99.90;;;;;;4991377;28;20073;-56
2022/05/25 05:05:48;;;;;;;9.60;1.63;;;10.80;99.90;;;;;;4985796;28;20418;-56
2022/05/25 05:08:17;;;;;;;9.90;1.95;;;10.80;99.90;;;;;;4998047;28;20065;-56
2022/05/25 05:10:44;;;;;;;3.70;1.52;;;10.80;99.90;;;;;;5009035;28;20061;-57
2022/05/25 05:13:12;;;;;;;7.28;1.42;;;10.80;99.90;;;;;;5006100;28;20042;-56
2022/05/25 05:15:49;;;;;;;10.23;1.70;;;10.90;99.90;;;;;;5008065;28;20060;-56
2022/05/25 05:18:19;;;;;;;4.05;1.23;;;10.90;99.90;;;;;;5005168;28;20049;-55
2022/05/25 05:21:04;;;;;;;8.02;1.60;;;10.90;99.90;;;;;;4992406;28;20042;-56
2022/05/25 05:23:32;;;;;;;8.15;1.58;;;11.00;99.90;;;;;;5007309;28;20046;-56
2022/05/25 05:26:00;;;;;;;5.78;1.42;;;11.00;99.90;;;;;;5013104;28;20045;-56
2022/05/25 05:28:32;;;;;;;3.03;1.23;;;11.00;99.90;;;;;;5011361;28;20490;-56
2022/05/25 05:31:02;;;;;;;3.90;1.40;;;11.00;99.90;;;;;;5011660;28;20045;-56
2022/05/25 05:33:31;;;;;;;;;;;11.00;99.90;;;;;;5001218;28;20501;-55
2022/05/25 05:36:21;;;;;;;4.40;1.50;;;11.10;99.90;;;;;;4989528;28;19921;-56
2022/05/25 05:38:59;;;;;;;;;;;11.10;99.90;;;;;;5003112;28;20500;-55
2022/05/25 05:41:36;;;;;;;8.23;1.63;;;11.10;99.90;;;;;;5012513;28;19922;-55
2022/05/25 05:44:06;;;;;;;6.55;1.40;;;11.20;99.90;;;;;;5011245;28;20053;-55
2022/05/25 05:46:36;;;;;;;5.97;1.30;;;11.20;99.90;;;;;;5011356;28;20053;-55
2022/05/25 05:49:05;;;;;;;6.13;1.30;;;11.20;99.90;;;;;;5011769;28;20516;-56
2022/05/25 05:51:33;;;;;;;6.97;3.45;;;11.20;99.90;;;;;;5012145;28;20042;-56
2022/05/25 05:54:05;;;;;;;6.40;1.48;;;11.30;99.90;;;;;;5012394;28;20054;-56
2022/05/25 05:56:33;;;;;;;2.25;0.90;;;11.30;99.90;;;;;;5012104;28;20053;-56
2022/05/25 05:59:02;;;;;;;7.60;1.33;;;11.40;99.90;;;;;;5007460;28;20057;-56
2022/05/25 06:01:29;;;;;;;5.05;1.00;;;11.40;99.90;;;;;;5012283;28;20038;-56
2022/05/25 06:03:57;;;;;;;8.75;1.20;;;11.40;99.90;;;;;;5001602;28;20612;-55
2022/05/25 06:06:25;;;;;;;7.68;1.90;;;11.40;99.90;;;;;;4989287;28;20454;-55
2022/05/25 06:08:53;;;;;;;7.07;1.13;;;11.50;99.90;;;;;;4999564;28;20042;-55
2022/05/25 06:11:21;;;;;;;4.25;1.15;;;11.50;99.90;;;;;;5011773;28;20053;-56
2022/05/25 06:13:49;;;;;;;7.63;1.05;;;11.50;99.90;;;;;;5010481;28;20045;-56
2022/05/25 06:21:49;;;;;;;8.88;1.20;;;11.60;99.90;;;;;;4988613;28;20042;-56
2022/05/25 06:24:17;;;;;;;0.90;0.63;;;11.70;99.90;;;;;;5007261;28;20058;-56
2022/05/25 06:26:44;;;;;;;2.85;0.93;;;11.70;99.90;;;;;;5008840;28;20516;-57
2022/05/25 06:29:16;;;;;;;4.28;1.33;;;11.80;99.90;;;;;;5010429;28;20042;-56
2022/05/25 06:31:44;;;;;;;2.17;0.70;;;11.80;99.90;;;;;;5009307;28;20046;-56
2022/05/25 06:34:12;;;;;;;3.25;0.85;;;11.90;99.90;;;;;;5006897;28;20049;-56
2022/05/25 06:36:41;;;;;;;4.35;0.98;;;11.90;99.90;;;;;;5009554;28;20050;-56
2022/05/25 06:39:09;;;;;;;4.63;1.00;;;12.00;99.90;;;;;;5011459;28;20401;-56
2022/05/25 06:41:37;;;;;;;16.50;2.00;;;12.10;99.90;;;;;;5011510;28;20050;-56
2022/05/25 06:44:05;;;;;;;4.70;1.25;;;12.10;99.90;;;;;;5011378;28;20415;-56
2022/05/25 06:46:33;;;;;;;2.97;1.13;;;12.10;99.90;;;;;;5011506;28;20052;-56
2022/05/25 06:49:00;;;;;;;4.55;0.98;;;12.10;99.90;;;;;;5001904;28;20046;-56
2022/05/25 06:51:33;;;;;;;2.75;0.70;;;12.10;99.90;;;;;;4991843;28;20061;-56
2022/05/25 06:54:07;;;;;;;3.53;0.90;;;12.10;99.90;;;;;;5008841;28;20391;-55
2022/05/25 06:56:35;;;;;;;6.15;1.27;;;12.20;99.90;;;;;;5011092;28;20056;-55
2022/05/25 06:59:03;;;;;;;5.47;0.80;;;12.10;99.90;;;;;;5010792;28;20060;-56
2022/05/25 07:01:30;;;;;;;5.57;1.10;;;12.10;99.90;;;;;;5008300;28;20051;-55
2022/05/25 07:03:58;;;;;;;2.45;0.77;;;12.00;99.90;;;;;;4999783;28;20059;-55
2022/05/25 07:06:27;;;;;;;5.22;0.85;;;12.10;99.90;;;;;;4988498;28;20041;-55
2022/05/25 07:08:54;;;;;;;6.43;0.80;;;12.00;99.90;;;;;;5001187;28;20050;-56
2022/05/25 07:11:23;;;;;;;2.97;0.70;;;12.10;99.90;;;;;;5009451;28;20057;-56
2022/05/25 07:13:52;;;;;;;8.90;0.73;;;12.10;99.90;;;;;;5010539;28;20050;-56
2022/05/25 07:16:21;;;;;;;2.78;0.55;;;12.20;99.90;;;;;;5010933;28;20065;-56
2022/05/25 07:18:49;;;;;;;3.28;0.80;;;12.20;99.90;;;;;;5005931;28;20038;-56
2022/05/25 07:21:22;;;;;;;2.03;0.85;;;12.30;99.90;;;;;;4991181;28;20050;-56
2022/05/25 07:23:51;;;;;;;7.38;0.93;;;12.30;99.90;;;;;;5006757;28;20046;-55
2022/05/25 07:26:21;;;;;;;4.63;0.70;;;12.30;99.90;;;;;;5009276;28;20061;-56
2022/05/25 07:28:51;;;;;;;6.00;0.80;;;12.30;99.90;;;;;;5010388;28;20046;-56
2022/05/25 07:31:24;;;;;;;4.25;0.90;;;12.40;99.90;;;;;;5010520;28;20054;-56
2022/05/25 07:34:00;;;;;;;3.17;1.10;;;12.40;99.90;;;;;;5003240;28;20047;-55
2022/05/25 07:36:30;;;;;;;11.43;1.67;;;12.40;99.90;;;;;;4987897;28;20057;-56
2022/05/25 07:39:02;;;;;;;2.13;1.05;;;12.40;99.90;;;;;;4997195;28;20536;-56
2022/05/25 07:41:31;;;;;;;8.70;1.52;;;12.40;99.90;;;;;;5005592;28;20414;-55
2022/05/25 07:43:59;;;;;;;8.75;1.55;;;12.40;99.90;;;;;;5009851;28;20082;-56
2022/05/25 07:46:28;;;;;;;6.35;1.65;;;12.50;99.90;;;;;;5010229;28;20057;-56
2022/05/25 07:48:56;;;;;;;3.30;0.83;;;12.50;99.90;;;;;;5005164;28;20054;-55
2022/05/25 07:51:25;;;;;;;2.55;0.73;;;12.40;99.90;;;;;;4990733;28;20054;-56
2022/05/25 07:53:56;;;;;;;5.45;1.05;;;12.50;99.90;;;;;;5001531;28;20046;-55
2022/05/25 07:56:29;;;;;;;8.23;1.50;;;12.50;99.90;;;;;;5005328;28;20478;-56
2022/05/25 07:59:00;;;;;;;1.85;0.90;;;12.50;99.90;;;;;;5009266;28;20500;-56
2022/05/25 08:07:07;;;;;;;2.97;0.40;;;12.60;99.90;;;;;;4999872;28;20571;-56
2022/05/25 08:09:36;;;;;;;1.20;0.30;;;12.70;99.90;;;;;;5009737;28;20065;-55
2022/05/25 08:12:06;;;;;;;2.78;0.38;;;12.80;99.90;;;;;;5010713;28;20057;-56
2022/05/25 08:14:34;;;;;;;3.03;0.32;;;12.80;99.90;;;;;;5028031;28;20424;-55
2022/05/25 08:17:04;;;;;;;0.10;0.10;;;12.80;99.90;;;;;;5009516;28;20046;-56
2022/05/25 08:19:32;;;;;;;2.00;0.10;;;12.90;99.90;;;;;;5010767;28;20402;-55
2022/05/25 08:21:59;;;;;;;2.97;0.25;;;12.90;99.90;;;;;;4990156;28;20063;-55
2022/05/25 08:24:29;;;;;;;0.32;0.13;;;12.90;99.90;;;;;;5006777;28;20467;-56
2022/05/25 08:27:05;;;;;;;1.45;0.10;;;13.00;99.90;;;;;;5005745;28;20045;-56
2022/05/25 08:29:33;;;;;;;1.05;0.20;;;13.00;99.90;;;;;;5006114;28;20049;-56
2022/05/25 08:32:01;;;;;;;3.47;0.20;;;13.00;99.90;;;;;;5006754;28;20382;-56
2022/05/25 08:34:29;;;;;;;0.90;0.20;;;13.00;99.90;;;;;;5001408;28;20058;-55
2022/05/25 08:36:57;;;;;;;0.63;0.25;;;13.00;99.90;;;;;;4993958;28;20083;-56
2022/05/25 08:39:24;;;;;;;2.15;0.20;;;13.00;99.90;;;;;;5020412;28;20053;-55
2022/05/25 08:41:55;;;;;;;0.75;0.15;;;13.10;99.90;;;;;;5026274;28;20050;-56
2022/05/25 08:44:23;;;;;;;1.17;0.10;;;13.10;99.90;;;;;;5025057;28;20037;-56
2022/05/25 08:46:58;;;;;;;1.85;0.22;;;13.20;99.90;;;;;;5008944;28;20840;-55
2022/05/25 08:49:30;;;;;;;1.98;0.15;;;13.40;99.90;;;;;;5017714;28;20486;-55
2022/05/25 08:52:01;;;;;;;0.47;0.25;;;13.50;99.90;;;;;;4996613;28;20058;-55
2022/05/25 08:54:29;;;;;;;0.82;0.10;;;13.60;99.90;;;;;;5028636;28;20489;-55
2022/05/25 08:57:04;;;;;;;2.95;0.20;;;13.60;99.90;;;;;;5029148;28;20405;-55
2022/05/25 08:59:39;;;;;;;0.95;0.20;;;13.70;99.90;;;;;;5029669;28;20065;-56
2022/05/25 09:02:41;;;;;;;1.45;0.13;;;13.70;99.90;;;;;;5029453;28;20045;-56
2022/05/25 09:05:47;;;;;;;0.28;0.10;;;13.70;99.90;;;;;;5003024;28;20482;-56
2022/05/25 09:08:26;;;;;;;0.20;0.10;;;13.80;99.90;;;;;;4989508;28;20049;-56
2022/05/25 09:10:59;;;;;;;0.50;0.15;;;14.00;99.90;;;;;;5009628;28;20413;-56
2022/05/25 09:13:39;;;;;;;0.22;0.10;;;14.10;99.90;;;;;;5009735;28;20425;-56
2022/05/25 09:16:16;;;;;;;0.28;0.10;;;14.20;99.90;;;;;;5009766;28;20089;-56
2022/05/25 09:19:10;;;;;;;0.70;0.20;;;14.20;99.90;;;;;;5009973;28;20061;-56
2022/05/25 09:21:57;;;;;;;1.40;0.10;;;14.30;99.90;;;;;;4988972;28;20561;-56
2022/05/25 09:24:27;;;;;;;1.10;0.30;;;14.30;99.90;;;;;;4990102;28;20050;-55
2022/05/25 09:26:57;;;;;;;0.55;0.13;;;14.40;99.90;;;;;;4990199;28;20221;-56
2022/05/25 09:29:25;;;;;;;0.20;0.10;;;14.50;99.90;;;;;;5003390;28;20045;-56
2022/05/25 09:32:38;;;;;;;1.23;0.10;;;14.60;99.90;;;;;;5009522;28;20568;-56
2022/05/25 09:35:14;;;;;;;0.47;0.10;;;14.70;99.90;;;;;;4996791;28;20055;-56
2022/05/25 09:37:42;;;;;;;0.10;0.10;;;14.70;99.90;;;;;;5009432;28;20053;-56
2022/05/25 09:40:25;;;;;;;1.98;0.10;;;14.60;99.90;;;;;;5008640;28;20054;-56
2022/05/25 09:42:58;;;;;;;2.15;0.10;;;14.60;99.90;;;;;;5009171;28;20056;-56
2022/05/25 09:45:39;;;;;;;0.22;0.10;;;14.60;99.90;;;;;;5009250;28;20050;-57
2022/05/25 09:48:14;;;;;;;0.28;0.10;;;14.60;99.90;;;;;;5009334;28;20049;-57
2022/05/25 09:50:50;;;;;;;0.90;0.90;;;14.70;99.90;;;;;;4997503;28;20042;-57
2022/05/25 09:53:22;;;;;;;2.25;0.45;;;14.70;99.90;;;;;;5019726;28;20049;-56
2022/05/25 09:56:09;;;;;;;0.82;0.40;;;14.70;99.90;;;;;;5029064;28;20045;-56
2022/05/25 09:58:43;;;;;;;1.85;0.40;;;14.70;99.90;;;;;;5029098;28;20037;-56
2022/05/25 10:01:45;;;;;;;0.22;0.10;;;14.70;99.90;;;;;;5019603;28;20045;-57
2022/05/25 10:04:51;;;;;;;3.58;0.30;;;14.80;99.90;;;;;;4995500;28;20539;-57
2022/05/25 10:07:25;;;;;;;0.10;0.10;;;15.00;99.90;;;;;;5006809;28;20058;-58
2022/05/25 10:09:57;;;;;;;0.40;0.22;;;15.10;99.90;;;;;;5025966;28;20068;-58
2022/05/25 10:12:31;;;;;;;1.75;0.15;;;15.20;99.90;;;;;;5027171;28;20053;-57
2022/05/25 10:15:07;;;;;;;0.70;0.10;;;15.40;99.90;;;;;;5006905;28;20045;-58
2022/05/25 10:17:47;;;;;;;2.33;0.25;;;15.40;99.90;;;;;;5007593;28;20052;-57
2022/05/25 10:20:30;;;;;;;5.05;0.45;;;15.40;99.90;;;;;;5001575;28;20035;-57
2022/05/25 10:23:09;;;;;;;1.77;0.20;;;15.40;99.90;;;;;;5013071;28;20064;-56
2022/05/25 10:25:50;;;;;;;2.28;0.40;;;15.40;99.90;;;;;;5028499;28;20592;-56
2022/05/25 10:28:35;;;;;;;0.60;0.55;;;15.50;99.90;;;;;;5010918;28;20083;-57
2022/05/25 10:37:10;;;;;;;3.67;0.30;;;15.90;99.90;;;;;;5006746;28;20788;-57
2022/05/25 10:39:45;;;;;;;1.80;0.22;;;15.90;99.90;;;;;;5023439;28;20504;-56
2022/05/25 10:42:17;;;;;;;2.25;0.40;;;15.90;99.90;;;;;;5015038;28;20056;-57
2022/05/25 10:45:18;;;;;;;1.55;0.25;;;15.90;99.90;;;;;;5027669;28;20048;-57
2022/05/25 10:47:52;;;;;;;0.50;0.30;;;16.00;99.90;;;;;;5028204;28;20041;-57
2022/05/25 10:50:46;;;;;;;1.65;0.40;;;15.90;99.90;;;;;;5018878;28;20053;-57
2022/05/25 10:57:00;;;;;;;1.30;0.30;;;15.80;99.90;;;;;;5008452;28;20042;-56
2022/05/25 10:59:28;;;;;;;1.05;0.30;;;15.80;99.90;;;;;;5007485;28;20046;-57
2022/05/25 11:02:35;;;;;;;1.55;0.60;;;15.90;99.90;;;;;;5004938;28;20516;-57
2022/05/25 11:05:11;;;;;;;0.43;0.30;;;16.10;99.90;;;;;;4965810;28;20054;-57
2022/05/25 11:07:41;;;;;;;2.17;0.40;;;16.30;99.90;;;;;;5010973;28;20058;-56
2022/05/25 11:10:34;;;;;;;4.65;1.38;;;16.30;99.90;;;;;;5009747;28;20049;-56
2022/05/25 11:13:26;;;;;;;2.70;0.40;;;16.30;99.90;;;;;;5008107;28;20062;-57
2022/05/25 11:16:37;;;;;;;1.38;0.47;;;16.30;99.90;;;;;;5009490;28;20053;-56
2022/05/25 11:19:24;;;;;;;3.53;0.45;;;16.10;99.90;;;;;;5008791;28;20463;-57
2022/05/25 11:22:36;;;;;;;2.75;0.50;;;16.00;99.90;;;;;;4995962;28;20046;-57
2022/05/25 11:25:19;;;;;;;1.58;0.50;;;16.00;99.90;;;;;;4978767;28;20046;-57
2022/05/25 11:28:10;;;;;;;3.20;0.50;;;16.10;99.90;;;;;;5010585;28;20046;-56
2022/05/25 11:30:53;;;;;;;4.45;0.47;;;16.40;99.90;;;;;;5008515;28;20061;-56
2022/05/25 11:33:50;;;;;;;2.70;0.50;;;16.60;99.90;;;;;;5009200;28;20050;-57
2022/05/25 11:37:05;;;;;;;2.40;0.50;;;17.00;99.90;;;;;;5005221;28;20367;-57
2022/05/25 11:39:51;;;;;;;2.20;0.43;;;17.40;99.90;;;;;;5009577;28;20062;-56
2022/05/25 11:43:05;;;;;;;3.45;0.40;;;17.80;99.90;;;;;;5009148;28;20041;-57
2022/05/25 11:45:53;;;;;;;1.92;0.25;;;17.90;99.90;;;;;;5010243;28;20057;-56
2022/05/25 11:49:18;;;;;;;1.48;0.30;;;17.80;99.90;;;;;;5010110;28;20053;-56
2022/05/25 11:51:58;;;;;;;1.17;0.20;;;17.70;99.90;;;;;;5006012;28;20050;-56
2022/05/25 11:54:50;;;;;;;1.02;0.50;;;17.50;99.90;;;;;;5009796;28;20038;-56
2022/05/25 11:57:29;;;;;;;4.15;0.50;;;17.50;99.90;;;;;;4982491;28;20050;-56
2022/05/25 12:00:18;;;;;;;3.35;0.40;;;17.50;99.90;;;;;;5009200;28;20053;-57
2022/05/25 12:03:05;;;;;;;2.67;0.50;;;17.50;99.90;;;;;;5008738;28;20045;-56
2022/05/25 12:05:50;;;;;;;3.80;0.50;;;17.50;99.90;;;;;;5008983;28;20069;-56
2022/05/25 12:08:53;;;;;;;1.25;0.40;;;17.40;99.90;;;;;;5005973;28;20046;-56
2022/05/25 12:11:50;;;;;;;4.75;1.27;;;17.30;99.90;;;;;;5009925;28;20050;-57
2022/05/25 12:14:42;;;;;;;4.28;0.70;;;17.10;99.90;;;;;;5010118;28;20056;-57
2022/05/25 12:17:30;;;;;;;4.68;0.85;;;17.00;99.90;;;;;;5009037;28;20060;-56
2022/05/25 12:20:01;;;;;;;1.13;0.63;;;16.80;99.90;;;;;;5008579;28;20413;-57
2022/05/25 12:22:35;;;;;;;1.35;0.57;;;16.60;99.90;;;;;;4997524;28;20061;-57
2022/05/25 12:25:10;;;;;;;3.88;0.70;;;16.50;99.90;;;;;;5011216;28;20069;-57
2022/05/25 12:27:43;;;;;;;2.08;0.50;;;16.50;99.90;;;;;;5014045;28;20046;-57
2022/05/25 12:30:15;;;;;;;2.08;0.50;;;16.60;99.90;;;;;;5013678;28;20058;-56
2022/05/25 12:32:43;;;;;;;3.30;0.40;;;16.70;99.90;;;;;;5012773;28;20049;-57
2022/05/25 12:35:14;;;;;;;2.03;0.70;;;16.90;99.90;;;;;;5014065;28;20057;-57
2022/05/25 12:37:48;;;;;;;0.80;0.47;;;17.10;99.90;;;;;;4996647;28;20065;-56
2022/05/25 12:40:34;;;;;;;3.90;0.80;;;17.10;99.90;;;;;;5011452;28;20046;-57
2022/05/25 12:43:01;;;;;;;3.05;0.50;;;16.90;99.90;;;;;;5009976;28;20061;-57
2022/05/25 12:48:35;;;;;;;8.70;0.80;;;17.00;99.90;;;;;;5002058;28;20053;-57
2022/05/25 12:51:09;;;;;;;3.83;1.23;;;17.10;99.90;;;;;;4995815;28;20049;-57
2022/05/25 12:53:55;;;;;;;4.28;0.60;;;17.20;99.90;;;;;;5000713;28;20049;-56
2022/05/25 12:56:25;;;;;;;5.03;0.40;;;17.20;99.90;;;;;;5032036;28;20471;-56
2022/05/25 12:58:57;;;;;;;1.35;0.30;;;17.20;99.90;;;;;;5020466;28;20053;-57
2022/05/25 13:01:27;;;;;;;;;;;17.20;99.90;;;;;;5014027;28;20057;-56
2022/05/25 13:03:56;;;;;;;1.00;0.10;;;17.10;99.90;;;;;;5013349;28;19928;-56
2022/05/25 13:06:29;;;;;;;1.17;0.40;;;17.00;99.90;;;;;;5009432;28;20084;-57
2022/05/25 13:08:58;;;;;;;2.47;0.80;;;17.00;99.90;;;;;;5002415;28;20049;-57
2022/05/25 13:11:33;;;;;;;2.05;0.38;;;17.10;99.90;;;;;;5011792;28;20042;-56
2022/05/25 13:14:02;;;;;;;0.70;0.17;;;17.30;99.90;;;;;;5012858;28;20522;-57
2022/05/25 13:16:45;;;;;;;1.45;0.73;;;17.70;99.90;;;;;;5013080;28;20486;-57
2022/05/25 13:19:43;;;;;;;1.50;0.50;;;18.30;99.90;;;;;;5012730;28;20054;-57
2022/05/25 13:22:17;;;;;;;3.28;0.75;;;18.90;99.90;;;;;;5004823;28;20053;-57
2022/05/25 13:25:00;;;;;;;4.60;0.50;;;19.20;99.90;;;;;;5011237;28;20042;-57
2022/05/25 13:27:33;;;;;;;2.38;0.40;;;19.10;99.90;;;;;;5013096;28;20041;-57
2022/05/25 13:30:23;;;;;;;1.42;0.17;;;19.00;99.90;;;;;;5012692;28;20042;-57
2022/05/25 13:32:57;;;;;;;1.70;0.70;;;19.00;99.90;;;;;;5017167;28;20068;-57
2022/05/25 13:35:29;;;;;;;2.60;0.30;;;19.00;99.90;;;;;;5028412;28;20092;-57
2022/05/25 13:37:59;;;;;;;2.55;0.38;;;19.10;99.90;;;;;;4999437;28;20053;-57
2022/05/25 13:40:35;;;;;;;2.30;0.30;;;19.20;99.90;;;;;;5010558;28;20045;-57
2022/05/25 13:43:03;;;;;;;1.42;0.75;;;19.10;99.90;;;;;;5008968;28;20054;-57
2022/05/25 13:45:30;;;;;;;1.30;0.45;;;18.90;99.90;;;;;;5008939;28;20046;-57
2022/05/25 13:48:00;;;;;;;2.28;0.40;;;18.70;99.90;;;;;;5012394;28;20045;-56
2022/05/25 13:50:33;;;;;;;3.33;0.30;;;18.50;99.90;;;;;;5011253;28;20045;-57
2022/05/25 13:53:02;;;;;;;5.82;0.75;;;18.20;99.90;;;;;;5001987;28;20053;-56
2022/05/25 13:55:35;;;;;;;1.40;0.40;;;17.80;99.90;;;;;;5009594;28;20612;-56
2022/05/25 13:58:12;;;;;;;1.85;0.93;;;17.60;99.90;;;;;;5008846;28;20046;-57